Grandview, WA (98930)

6:01 PM PDT on April 27, 2015 (GMT -0700)
Hillcrest | | Change Station
CLOSE
Current Station
Personal Weather Station
Location: Grandview, WA
Elevation: 831 ft
Nearby Weather Stations

Elev 831 ft 46.25 °N, 119.92 °W | Updated 57 minutes ago

Clear
Clear
78.5 °F
Feels Like 78 °F
N
2.0
Wind Variable Wind from ENE
Gusts 9.0 mph

Today
High -- | Low -- °F
--% Chance of Precip.
Yesterday
High -- | Low -- °F
Precip. -- in
5:52 AM 8:02 PM
Waxing Gibbous, 69% visible
Pressure 30.10 in
Visibility 10.0 miles
Clouds Clear
Heat Index 78 °F
Dew Point 45 °F
Humidity 31%
Rainfall 0.00 in
Snow Depth Not available.
UV 2 out of 12
Pollen 9.80 out of 12
Air Quality Not available.
Flu Activity Regional
METAR KYKM 280053Z 14007KT 10SM CLR 25/06 A3011 RMK AO2 SLP193 T02500056

More Conditions Fewer Conditions

Pressure 30.10 in
Visibility 10.0 miles
Clouds Clear
Heat Index 78 °F
Dew Point 45 °F
Humidity 31%
Rainfall 0.00 in
Snow Depth Not available.
UV 2 out of 12
Pollen 9.80 out of 12
Air Quality Not available.
Flu Activity Regional
METAR KYKM 280053Z 14007KT 10SM CLR 25/06 A3011 RMK AO2 SLP193 T02500056

More Conditions Fewer Conditions

10-Day Weather Forecast

Almanac

Astronomy

Apr. 27, 2015 Rise Set
Actual Time
Civil Twilight
Nautical Twilight
Astronomical Twilight
Moon
Length of Visible Light
Length of Day
Tomorrow will be .
, % of the Moon is Illuminated

Today's Extremes

State Highs State Lows

Community

WunderPhotos

Upload Photos

1,817,503 photos uploaded!

WunderBlogs® & News

Nearby

Air Quality

  Air Quality AQ Index Pollutant
Not available.

Snow Depth

Station Depth Elevation

Earthquake Activity

City Distance Mag. Time & Date
Minimum magnitude displayed is 2.5.

Coastal Water Temperatures

Place Temperature

Stations

Nearby Weather Stations

Station Location Temp. Windchill Dew Point Humidity Wind Precip. Elev Updated Type